Terminal Aerodrome Forecast
Issued by NWS Atlanta, GA

Home | Current Version | Previous Version | Text Only | Print | Product List | Glossary On
Versions: 1 2 3 4 5 6 7 8 9 10 11 12 13 14 15 16 17 18 19 20 21 22 23 24
000
FTUS42 KFFC 161731
TAFMCN
TAF
KMCN 161731Z 1618/1718 23004KT P6SM SCT050
     FM162100 16004KT P6SM BKN050
     FM170100 16003KT P6SM FEW250
     FM171500 00000KT P6SM SCT040=

USA.gov is the U.S. government's official web portal to all federal, state and local government web resources and services.